sensor_id;sensor_type;location;lat;lon;timestamp;temperature;humidity
75442;DHT22;64019;48.312;14.226;2023-11-19T00:00:27;4.30;99.90
75442;DHT22;64019;48.312;14.226;2023-11-19T00:02:53;4.40;99.90
75442;DHT22;64019;48.312;14.226;2023-11-19T00:05:19;4.40;99.90
75442;DHT22;64019;48.312;14.226;2023-11-19T00:07:45;4.40;99.90
75442;DHT22;64019;48.312;14.226;2023-11-19T00:10:11;4.40;99.90
75442;DHT22;64019;48.312;14.226;2023-11-19T00:12:41;4.40;99.90
75442;DHT22;64019;48.312;14.226;2023-11-19T00:15:07;4.50;99.90
75442;DHT22;64019;48.312;14.226;2023-11-19T00:17:41;4.40;99.90
75442;DHT22;64019;48.312;14.226;2023-11-19T00:20:19;4.50;99.90
75442;DHT22;64019;48.312;14.226;2023-11-19T00:22:47;4.40;99.90
75442;DHT22;64019;48.312;14.226;2023-11-19T00:25:18;4.50;99.90
75442;DHT22;64019;48.312;14.226;2023-11-19T00:27:44;4.50;99.90
75442;DHT22;64019;48.312;14.226;2023-11-19T00:30:13;4.50;99.90
75442;DHT22;64019;48.312;14.226;2023-11-19T00:32:40;4.40;99.90
75442;DHT22;64019;48.312;14.226;2023-11-19T00:35:06;4.40;99.90
75442;DHT22;64019;48.312;14.226;2023-11-19T00:37:32;4.40;99.90
75442;DHT22;64019;48.312;14.226;2023-11-19T00:39:58;4.30;99.90
75442;DHT22;64019;48.312;14.226;2023-11-19T00:42:24;4.40;99.90
75442;DHT22;64019;48.312;14.226;2023-11-19T00:44:50;4.30;99.90
75442;DHT22;64019;48.312;14.226;2023-11-19T00:47:16;4.30;99.90
75442;DHT22;64019;48.312;14.226;2023-11-19T00:49:43;4.30;99.90
75442;DHT22;64019;48.312;14.226;2023-11-19T00:52:08;4.30;99.90
75442;DHT22;64019;48.312;14.226;2023-11-19T00:54:34;4.30;99.90
75442;DHT22;64019;48.312;14.226;2023-11-19T00:57:00;4.30;99.90
75442;DHT22;64019;48.312;14.226;2023-11-19T00:59:27;4.30;99.90
75442;DHT22;64019;48.312;14.226;2023-11-19T01:01:54;4.20;99.90
75442;DHT22;64019;48.312;14.226;2023-11-19T01:04:19;4.20;99.90
75442;DHT22;64019;48.312;14.226;2023-11-19T01:06:45;4.20;99.90
75442;DHT22;64019;48.312;14.226;2023-11-19T01:09:11;4.20;99.90
75442;DHT22;64019;48.312;14.226;2023-11-19T01:11:37;4.10;99.90
75442;DHT22;64019;48.312;14.226;2023-11-19T01:14:02;4.10;99.90
75442;DHT22;64019;48.312;14.226;2023-11-19T01:16:28;4.10;99.90
75442;DHT22;64019;48.312;14.226;2023-11-19T01:18:54;4.10;99.90
75442;DHT22;64019;48.312;14.226;2023-11-19T01:21:20;4.10;99.90
75442;DHT22;64019;48.312;14.226;2023-11-19T01:23:47;4.10;99.90
75442;DHT22;64019;48.312;14.226;2023-11-19T01:26:13;4.10;99.90
75442;DHT22;64019;48.312;14.226;2023-11-19T01:28:39;4.00;99.90
75442;DHT22;64019;48.312;14.226;2023-11-19T01:31:11;4.10;99.90
75442;DHT22;64019;48.312;14.226;2023-11-19T01:33:37;4.00;99.90
75442;DHT22;64019;48.312;14.226;2023-11-19T01:36:04;4.10;99.90
75442;DHT22;64019;48.312;14.226;2023-11-19T01:38:30;4.00;99.90
75442;DHT22;64019;48.312;14.226;2023-11-19T01:40:57;4.00;99.90
75442;DHT22;64019;48.312;14.226;2023-11-19T01:43:37;3.90;99.90
75442;DHT22;64019;48.312;14.226;2023-11-19T01:46:05;4.00;99.90
75442;DHT22;64019;48.312;14.226;2023-11-19T01:48:33;3.90;99.90
75442;DHT22;64019;48.312;14.226;2023-11-19T01:51:00;3.90;99.90
75442;DHT22;64019;48.312;14.226;2023-11-19T01:53:26;3.90;99.90
75442;DHT22;64019;48.312;14.226;2023-11-19T01:55:52;3.80;99.90
75442;DHT22;64019;48.312;14.226;2023-11-19T01:58:19;3.90;99.90
75442;DHT22;64019;48.312;14.226;2023-11-19T02:00:45;3.90;99.90
75442;DHT22;64019;48.312;14.226;2023-11-19T02:03:11;3.80;99.90
75442;DHT22;64019;48.312;14.226;2023-11-19T02:05:37;3.80;99.90
75442;DHT22;64019;48.312;14.226;2023-11-19T02:08:04;3.80;99.90
75442;DHT22;64019;48.312;14.226;2023-11-19T02:10:30;3.80;99.90
75442;DHT22;64019;48.312;14.226;2023-11-19T02:12:58;3.90;99.90
75442;DHT22;64019;48.312;14.226;2023-11-19T02:15:23;3.90;99.90
75442;DHT22;64019;48.312;14.226;2023-11-19T02:17:52;3.90;99.90
75442;DHT22;64019;48.312;14.226;2023-11-19T02:20:18;3.90;99.90
75442;DHT22;64019;48.312;14.226;2023-11-19T02:22:46;3.80;99.90
75442;DHT22;64019;48.312;14.226;2023-11-19T02:25:19;3.90;99.90
75442;DHT22;64019;48.312;14.226;2023-11-19T02:27:53;3.90;99.90
75442;DHT22;64019;48.312;14.226;2023-11-19T02:30:23;3.90;99.90
75442;DHT22;64019;48.312;14.226;2023-11-19T02:32:52;3.80;99.90
75442;DHT22;64019;48.312;14.226;2023-11-19T02:35:19;3.90;99.90
75442;DHT22;64019;48.312;14.226;2023-11-19T02:37:47;3.90;99.90
75442;DHT22;64019;48.312;14.226;2023-11-19T02:40:13;3.90;99.90
75442;DHT22;64019;48.312;14.226;2023-11-19T02:42:39;3.90;99.90
75442;DHT22;64019;48.312;14.226;2023-11-19T02:45:05;3.90;99.90
75442;DHT22;64019;48.312;14.226;2023-11-19T02:47:32;3.90;99.90
75442;DHT22;64019;48.312;14.226;2023-11-19T02:49:59;3.90;99.90
75442;DHT22;64019;48.312;14.226;2023-11-19T02:52:25;3.90;99.90
75442;DHT22;64019;48.312;14.226;2023-11-19T02:54:51;3.90;99.90
75442;DHT22;64019;48.312;14.226;2023-11-19T02:57:16;3.90;99.90
75442;DHT22;64019;48.312;14.226;2023-11-19T02:59:45;3.90;99.90
75442;DHT22;64019;48.312;14.226;2023-11-19T03:02:11;3.90;99.90
75442;DHT22;64019;48.312;14.226;2023-11-19T03:04:37;3.80;99.90
75442;DHT22;64019;48.312;14.226;2023-11-19T03:07:08;3.80;99.90
75442;DHT22;64019;48.312;14.226;2023-11-19T03:09:33;3.80;99.90
75442;DHT22;64019;48.312;14.226;2023-11-19T03:12:01;3.80;99.90
75442;DHT22;64019;48.312;14.226;2023-11-19T03:14:27;3.80;99.90
75442;DHT22;64019;48.312;14.226;2023-11-19T03:16:53;3.90;99.90
75442;DHT22;64019;48.312;14.226;2023-11-19T03:19:19;3.90;99.90
75442;DHT22;64019;48.312;14.226;2023-11-19T03:21:44;4.00;99.90
75442;DHT22;64019;48.312;14.226;2023-11-19T03:24:13;3.90;99.90
75442;DHT22;64019;48.312;14.226;2023-11-19T03:26:38;3.90;99.90
75442;DHT22;64019;48.312;14.226;2023-11-19T03:29:04;3.90;99.90
75442;DHT22;64019;48.312;14.226;2023-11-19T03:31:30;3.90;99.90
75442;DHT22;64019;48.312;14.226;2023-11-19T03:33:56;3.90;99.90
75442;DHT22;64019;48.312;14.226;2023-11-19T03:36:22;3.90;99.90
75442;DHT22;64019;48.312;14.226;2023-11-19T03:38:48;4.00;99.90
75442;DHT22;64019;48.312;14.226;2023-11-19T03:41:14;4.00;99.90
75442;DHT22;64019;48.312;14.226;2023-11-19T03:43:41;3.90;99.90
75442;DHT22;64019;48.312;14.226;2023-11-19T03:46:19;3.90;99.90
75442;DHT22;64019;48.312;14.226;2023-11-19T03:48:49;3.90;99.90
75442;DHT22;64019;48.312;14.226;2023-11-19T03:51:15;3.90;99.90
75442;DHT22;64019;48.312;14.226;2023-11-19T03:53:45;3.90;99.90
75442;DHT22;64019;48.312;14.226;2023-11-19T03:56:12;3.90;99.90
75442;DHT22;64019;48.312;14.226;2023-11-19T03:58:38;3.80;99.90
75442;DHT22;64019;48.312;14.226;2023-11-19T04:01:14;3.80;99.90
75442;DHT22;64019;48.312;14.226;2023-11-19T04:03:40;3.80;99.90
75442;DHT22;64019;48.312;14.226;2023-11-19T04:06:06;3.80;99.90
75442;DHT22;64019;48.312;14.226;2023-11-19T04:08:31;3.90;99.90
75442;DHT22;64019;48.312;14.226;2023-11-19T04:10:57;3.90;99.90
75442;DHT22;64019;48.312;14.226;2023-11-19T04:13:23;3.90;99.90
75442;DHT22;64019;48.312;14.226;2023-11-19T04:15:50;4.00;99.90
75442;DHT22;64019;48.312;14.226;2023-11-19T04:18:16;4.00;99.90
75442;DHT22;64019;48.312;14.226;2023-11-19T04:20:41;4.00;99.90
75442;DHT22;64019;48.312;14.226;2023-11-19T04:23:10;4.10;99.90
75442;DHT22;64019;48.312;14.226;2023-11-19T04:25:36;4.00;99.90
75442;DHT22;64019;48.312;14.226;2023-11-19T04:28:02;4.00;99.90
75442;DHT22;64019;48.312;14.226;2023-11-19T04:30:28;4.00;99.90
75442;DHT22;64019;48.312;14.226;2023-11-19T04:32:54;4.10;99.90
75442;DHT22;64019;48.312;14.226;2023-11-19T04:35:20;4.10;99.90
75442;DHT22;64019;48.312;14.226;2023-11-19T04:37:46;4.10;99.90
75442;DHT22;64019;48.312;14.226;2023-11-19T04:40:13;4.00;99.90
75442;DHT22;64019;48.312;14.226;2023-11-19T04:42:38;4.00;99.90
75442;DHT22;64019;48.312;14.226;2023-11-19T04:45:07;4.10;99.90
75442;DHT22;64019;48.312;14.226;2023-11-19T04:47:36;4.10;99.90
75442;DHT22;64019;48.312;14.226;2023-11-19T04:50:02;4.20;99.90
75442;DHT22;64019;48.312;14.226;2023-11-19T04:52:29;4.20;99.90
75442;DHT22;64019;48.312;14.226;2023-11-19T04:54:54;4.10;99.90
75442;DHT22;64019;48.312;14.226;2023-11-19T04:57:20;4.10;99.90
75442;DHT22;64019;48.312;14.226;2023-11-19T04:59:46;4.10;99.90
75442;DHT22;64019;48.312;14.226;2023-11-19T05:02:11;4.10;99.90
75442;DHT22;64019;48.312;14.226;2023-11-19T05:04:42;4.10;99.90
75442;DHT22;64019;48.312;14.226;2023-11-19T05:07:09;4.10;99.90
75442;DHT22;64019;48.312;14.226;2023-11-19T05:09:35;4.10;99.90
75442;DHT22;64019;48.312;14.226;2023-11-19T05:12:01;4.10;99.90
75442;DHT22;64019;48.312;14.226;2023-11-19T05:14:27;4.10;99.90
75442;DHT22;64019;48.312;14.226;2023-11-19T05:16:53;4.10;99.90
75442;DHT22;64019;48.312;14.226;2023-11-19T05:19:19;4.10;99.90
75442;DHT22;64019;48.312;14.226;2023-11-19T05:21:44;4.00;99.90
75442;DHT22;64019;48.312;14.226;2023-11-19T05:24:10;4.10;99.90
75442;DHT22;64019;48.312;14.226;2023-11-19T05:26:37;4.10;99.90
75442;DHT22;64019;48.312;14.226;2023-11-19T05:29:03;4.10;99.90
75442;DHT22;64019;48.312;14.226;2023-11-19T05:31:30;4.10;99.90
75442;DHT22;64019;48.312;14.226;2023-11-19T05:33:55;4.10;99.90
75442;DHT22;64019;48.312;14.226;2023-11-19T05:36:21;4.10;99.90
75442;DHT22;64019;48.312;14.226;2023-11-19T05:38:47;4.10;99.90
75442;DHT22;64019;48.312;14.226;2023-11-19T05:41:13;4.10;99.90
75442;DHT22;64019;48.312;14.226;2023-11-19T05:43:39;4.10;99.90
75442;DHT22;64019;48.312;14.226;2023-11-19T05:46:06;4.10;99.90
75442;DHT22;64019;48.312;14.226;2023-11-19T05:48:32;4.20;99.90
75442;DHT22;64019;48.312;14.226;2023-11-19T05:50:58;4.20;99.90
75442;DHT22;64019;48.312;14.226;2023-11-19T05:53:24;4.20;99.90
75442;DHT22;64019;48.312;14.226;2023-11-19T05:55:50;4.10;99.90
75442;DHT22;64019;48.312;14.226;2023-11-19T05:58:25;4.10;99.90
75442;DHT22;64019;48.312;14.226;2023-11-19T06:00:52;4.10;99.90
75442;DHT22;64019;48.312;14.226;2023-11-19T06:03:17;4.10;99.90
75442;DHT22;64019;48.312;14.226;2023-11-19T06:05:47;4.20;99.90
75442;DHT22;64019;48.312;14.226;2023-11-19T06:08:13;4.20;99.90
75442;DHT22;64019;48.312;14.226;2023-11-19T06:10:43;4.20;99.90
75442;DHT22;64019;48.312;14.226;2023-11-19T06:13:12;4.20;99.90
75442;DHT22;64019;48.312;14.226;2023-11-19T06:15:38;4.20;99.90
75442;DHT22;64019;48.312;14.226;2023-11-19T06:18:03;4.20;99.90
75442;DHT22;64019;48.312;14.226;2023-11-19T06:20:30;4.20;99.90
75442;DHT22;64019;48.312;14.226;2023-11-19T06:22:57;4.20;99.90
75442;DHT22;64019;48.312;14.226;2023-11-19T06:25:23;4.30;99.90
75442;DHT22;64019;48.312;14.226;2023-11-19T06:27:52;4.30;99.90
75442;DHT22;64019;48.312;14.226;2023-11-19T06:30:18;4.20;99.90
75442;DHT22;64019;48.312;14.226;2023-11-19T06:32:44;4.20;99.90
75442;DHT22;64019;48.312;14.226;2023-11-19T06:35:10;4.20;99.90
75442;DHT22;64019;48.312;14.226;2023-11-19T06:37:38;4.30;99.90
75442;DHT22;64019;48.312;14.226;2023-11-19T06:40:04;4.20;99.90
75442;DHT22;64019;48.312;14.226;2023-11-19T06:42:31;4.20;99.90
75442;DHT22;64019;48.312;14.226;2023-11-19T06:44:57;4.20;99.90
75442;DHT22;64019;48.312;14.226;2023-11-19T06:47:26;4.20;99.90
75442;DHT22;64019;48.312;14.226;2023-11-19T06:49:52;4.20;99.90
75442;DHT22;64019;48.312;14.226;2023-11-19T06:52:18;4.20;99.90
75442;DHT22;64019;48.312;14.226;2023-11-19T06:54:44;4.30;99.90
75442;DHT22;64019;48.312;14.226;2023-11-19T06:57:11;4.20;99.90
75442;DHT22;64019;48.312;14.226;2023-11-19T06:59:37;4.20;99.90
75442;DHT22;64019;48.312;14.226;2023-11-19T07:02:03;4.30;99.90
75442;DHT22;64019;48.312;14.226;2023-11-19T07:04:30;4.20;99.90
75442;DHT22;64019;48.312;14.226;2023-11-19T07:06:56;4.10;99.90
75442;DHT22;64019;48.312;14.226;2023-11-19T07:09:22;4.10;99.90
75442;DHT22;64019;48.312;14.226;2023-11-19T07:11:49;4.10;99.90
75442;DHT22;64019;48.312;14.226;2023-11-19T07:14:17;4.10;99.90
75442;DHT22;64019;48.312;14.226;2023-11-19T07:16:43;4.20;99.90
75442;DHT22;64019;48.312;14.226;2023-11-19T07:19:09;4.20;99.90
75442;DHT22;64019;48.312;14.226;2023-11-19T07:21:36;4.20;99.90
75442;DHT22;64019;48.312;14.226;2023-11-19T07:24:05;4.20;99.90
75442;DHT22;64019;48.312;14.226;2023-11-19T07:26:31;4.30;99.90
75442;DHT22;64019;48.312;14.226;2023-11-19T07:28:57;4.20;99.90
75442;DHT22;64019;48.312;14.226;2023-11-19T07:31:24;4.20;99.90
75442;DHT22;64019;48.312;14.226;2023-11-19T07:33:49;4.20;99.90
75442;DHT22;64019;48.312;14.226;2023-11-19T07:36:15;4.20;99.90
75442;DHT22;64019;48.312;14.226;2023-11-19T07:38:42;4.30;99.90
75442;DHT22;64019;48.312;14.226;2023-11-19T07:41:08;4.20;99.90
75442;DHT22;64019;48.312;14.226;2023-11-19T07:43:39;4.30;99.90
75442;DHT22;64019;48.312;14.226;2023-11-19T07:46:11;4.30;99.90
75442;DHT22;64019;48.312;14.226;2023-11-19T07:48:38;4.30;99.90
75442;DHT22;64019;48.312;14.226;2023-11-19T07:51:04;4.30;99.90
75442;DHT22;64019;48.312;14.226;2023-11-19T07:53:30;4.40;99.90
75442;DHT22;64019;48.312;14.226;2023-11-19T07:55:56;4.40;99.90
75442;DHT22;64019;48.312;14.226;2023-11-19T07:58:21;4.40;99.90
75442;DHT22;64019;48.312;14.226;2023-11-19T08:00:47;4.40;99.90
75442;DHT22;64019;48.312;14.226;2023-11-19T08:03:13;4.40;99.90
75442;DHT22;64019;48.312;14.226;2023-11-19T08:05:38;4.40;99.90
75442;DHT22;64019;48.312;14.226;2023-11-19T08:08:04;4.40;99.90
75442;DHT22;64019;48.312;14.226;2023-11-19T08:10:30;4.50;99.90
75442;DHT22;64019;48.312;14.226;2023-11-19T08:12:58;4.40;99.90
75442;DHT22;64019;48.312;14.226;2023-11-19T08:15:24;4.40;99.90
75442;DHT22;64019;48.312;14.226;2023-11-19T08:17:49;4.50;99.90
75442;DHT22;64019;48.312;14.226;2023-11-19T08:20:15;4.40;99.90
75442;DHT22;64019;48.312;14.226;2023-11-19T08:22:41;4.40;99.90
75442;DHT22;64019;48.312;14.226;2023-11-19T08:25:07;4.30;99.90
75442;DHT22;64019;48.312;14.226;2023-11-19T08:27:33;4.40;99.90
75442;DHT22;64019;48.312;14.226;2023-11-19T08:29:59;4.40;99.90
75442;DHT22;64019;48.312;14.226;2023-11-19T08:32:25;4.40;99.90
75442;DHT22;64019;48.312;14.226;2023-11-19T08:34:51;4.40;99.90
75442;DHT22;64019;48.312;14.226;2023-11-19T08:37:17;4.40;99.90
75442;DHT22;64019;48.312;14.226;2023-11-19T08:39:50;4.40;99.90
75442;DHT22;64019;48.312;14.226;2023-11-19T08:42:16;4.30;99.90
75442;DHT22;64019;48.312;14.226;2023-11-19T08:44:49;4.40;99.90
75442;DHT22;64019;48.312;14.226;2023-11-19T08:47:16;4.50;99.90
75442;DHT22;64019;48.312;14.226;2023-11-19T08:49:43;4.50;99.90
75442;DHT22;64019;48.312;14.226;2023-11-19T08:52:09;4.50;99.90
75442;DHT22;64019;48.312;14.226;2023-11-19T08:54:36;4.50;99.90
75442;DHT22;64019;48.312;14.226;2023-11-19T08:57:02;4.50;99.90
75442;DHT22;64019;48.312;14.226;2023-11-19T08:59:29;4.50;99.90
75442;DHT22;64019;48.312;14.226;2023-11-19T09:01:54;4.60;99.90
75442;DHT22;64019;48.312;14.226;2023-11-19T09:04:20;4.60;99.90
75442;DHT22;64019;48.312;14.226;2023-11-19T09:06:49;4.70;99.90
75442;DHT22;64019;48.312;14.226;2023-11-19T09:09:15;4.70;99.90
75442;DHT22;64019;48.312;14.226;2023-11-19T09:11:41;4.70;99.90
75442;DHT22;64019;48.312;14.226;2023-11-19T09:14:06;4.70;99.90
75442;DHT22;64019;48.312;14.226;2023-11-19T09:16:32;4.70;99.90
75442;DHT22;64019;48.312;14.226;2023-11-19T09:18:58;4.70;99.90
75442;DHT22;64019;48.312;14.226;2023-11-19T09:21:25;4.70;99.90
75442;DHT22;64019;48.312;14.226;2023-11-19T09:23:51;4.80;99.90
75442;DHT22;64019;48.312;14.226;2023-11-19T09:26:18;4.80;99.90
75442;DHT22;64019;48.312;14.226;2023-11-19T09:28:44;4.80;99.90
75442;DHT22;64019;48.312;14.226;2023-11-19T09:31:16;4.90;99.90
75442;DHT22;64019;48.312;14.226;2023-11-19T09:33:42;4.90;99.90
75442;DHT22;64019;48.312;14.226;2023-11-19T09:36:08;4.80;99.90
75442;DHT22;64019;48.312;14.226;2023-11-19T09:38:34;4.80;99.90
75442;DHT22;64019;48.312;14.226;2023-11-19T09:41:07;4.80;99.90
75442;DHT22;64019;48.312;14.226;2023-11-19T09:43:34;4.90;99.90
75442;DHT22;64019;48.312;14.226;2023-11-19T09:46:05;4.90;99.90
75442;DHT22;64019;48.312;14.226;2023-11-19T09:48:36;4.90;99.90
75442;DHT22;64019;48.312;14.226;2023-11-19T09:51:06;4.90;99.90
75442;DHT22;64019;48.312;14.226;2023-11-19T09:53:33;5.00;99.90
75442;DHT22;64019;48.312;14.226;2023-11-19T10:02:48;5.10;99.90
75442;DHT22;64019;48.312;14.226;2023-11-19T10:05:15;5.10;99.90
75442;DHT22;64019;48.312;14.226;2023-11-19T10:07:40;5.20;99.90
75442;DHT22;64019;48.312;14.226;2023-11-19T10:10:07;5.20;99.90
75442;DHT22;64019;48.312;14.226;2023-11-19T10:12:33;5.20;99.90
75442;DHT22;64019;48.312;14.226;2023-11-19T10:14:59;5.30;99.90
75442;DHT22;64019;48.312;14.226;2023-11-19T10:17:28;5.20;99.90
75442;DHT22;64019;48.312;14.226;2023-11-19T10:19:57;5.20;99.90
75442;DHT22;64019;48.312;14.226;2023-11-19T10:22:23;5.20;99.90
75442;DHT22;64019;48.312;14.226;2023-11-19T10:24:50;5.20;99.90
75442;DHT22;64019;48.312;14.226;2023-11-19T10:27:16;5.20;99.90
75442;DHT22;64019;48.312;14.226;2023-11-19T10:29:47;5.20;99.90
75442;DHT22;64019;48.312;14.226;2023-11-19T10:32:13;5.20;99.90
75442;DHT22;64019;48.312;14.226;2023-11-19T10:34:40;5.20;99.90
75442;DHT22;64019;48.312;14.226;2023-11-19T10:37:07;5.30;99.90
75442;DHT22;64019;48.312;14.226;2023-11-19T10:39:52;5.30;99.90
75442;DHT22;64019;48.312;14.226;2023-11-19T10:42:20;5.20;99.90
75442;DHT22;64019;48.312;14.226;2023-11-19T10:44:46;5.30;99.90
75442;DHT22;64019;48.312;14.226;2023-11-19T10:47:13;5.30;99.90
75442;DHT22;64019;48.312;14.226;2023-11-19T10:49:39;5.40;99.90
75442;DHT22;64019;48.312;14.226;2023-11-19T10:52:08;5.30;99.90
75442;DHT22;64019;48.312;14.226;2023-11-19T10:54:34;5.40;99.90
75442;DHT22;64019;48.312;14.226;2023-11-19T10:57:01;5.40;99.90
75442;DHT22;64019;48.312;14.226;2023-11-19T10:59:31;5.40;99.90
75442;DHT22;64019;48.312;14.226;2023-11-19T11:01:57;5.40;99.90
75442;DHT22;64019;48.312;14.226;2023-11-19T11:04:26;5.40;99.90
75442;DHT22;64019;48.312;14.226;2023-11-19T11:06:57;5.40;99.90
75442;DHT22;64019;48.312;14.226;2023-11-19T11:09:26;5.30;99.90
75442;DHT22;64019;48.312;14.226;2023-11-19T11:11:54;5.40;99.90
75442;DHT22;64019;48.312;14.226;2023-11-19T11:14:21;5.40;99.90
75442;DHT22;64019;48.312;14.226;2023-11-19T11:16:48;5.30;99.90
75442;DHT22;64019;48.312;14.226;2023-11-19T11:19:16;5.30;99.90
75442;DHT22;64019;48.312;14.226;2023-11-19T11:21:47;5.30;99.90
75442;DHT22;64019;48.312;14.226;2023-11-19T11:24:48;5.40;99.90
75442;DHT22;64019;48.312;14.226;2023-11-19T11:27:34;5.50;99.90
75442;DHT22;64019;48.312;14.226;2023-11-19T11:32:43;5.60;99.90
75442;DHT22;64019;48.312;14.226;2023-11-19T11:35:29;5.60;99.90
75442;DHT22;64019;48.312;14.226;2023-11-19T11:38:03;5.60;99.90
75442;DHT22;64019;48.312;14.226;2023-11-19T11:40:29;5.60;99.90
75442;DHT22;64019;48.312;14.226;2023-11-19T11:42:55;5.70;99.90
75442;DHT22;64019;48.312;14.226;2023-11-19T11:45:35;5.70;99.90
75442;DHT22;64019;48.312;14.226;2023-11-19T11:48:10;5.70;99.90
75442;DHT22;64019;48.312;14.226;2023-11-19T11:50:51;5.70;99.90
75442;DHT22;64019;48.312;14.226;2023-11-19T11:53:18;5.70;99.90
75442;DHT22;64019;48.312;14.226;2023-11-19T11:58:20;5.80;99.90
75442;DHT22;64019;48.312;14.226;2023-11-19T12:00:47;5.80;99.90
75442;DHT22;64019;48.312;14.226;2023-11-19T12:03:13;5.80;99.90
75442;DHT22;64019;48.312;14.226;2023-11-19T12:05:41;5.90;99.90
75442;DHT22;64019;48.312;14.226;2023-11-19T12:08:07;6.00;99.90
75442;DHT22;64019;48.312;14.226;2023-11-19T12:10:52;5.80;99.90
75442;DHT22;64019;48.312;14.226;2023-11-19T12:13:20;5.80;99.90
75442;DHT22;64019;48.312;14.226;2023-11-19T12:18:28;5.90;99.90
75442;DHT22;64019;48.312;14.226;2023-11-19T12:20:55;5.90;99.90
75442;DHT22;64019;48.312;14.226;2023-11-19T12:23:22;6.00;99.90
75442;DHT22;64019;48.312;14.226;2023-11-19T12:25:48;6.00;99.90
75442;DHT22;64019;48.312;14.226;2023-11-19T12:28:14;6.10;99.90
75442;DHT22;64019;48.312;14.226;2023-11-19T12:30:43;6.10;99.90
75442;DHT22;64019;48.312;14.226;2023-11-19T12:33:10;6.20;99.90
75442;DHT22;64019;48.312;14.226;2023-11-19T12:35:40;6.30;99.90
75442;DHT22;64019;48.312;14.226;2023-11-19T12:38:06;6.40;99.90
75442;DHT22;64019;48.312;14.226;2023-11-19T12:40:32;6.40;99.90
75442;DHT22;64019;48.312;14.226;2023-11-19T12:42:58;6.30;99.90
75442;DHT22;64019;48.312;14.226;2023-11-19T12:45:25;6.30;99.90
75442;DHT22;64019;48.312;14.226;2023-11-19T12:48:06;6.30;99.90
75442;DHT22;64019;48.312;14.226;2023-11-19T12:50:55;6.30;99.90
75442;DHT22;64019;48.312;14.226;2023-11-19T12:53:22;6.40;99.90
75442;DHT22;64019;48.312;14.226;2023-11-19T12:55:48;6.50;99.90
75442;DHT22;64019;48.312;14.226;2023-11-19T12:58:34;6.50;99.90
75442;DHT22;64019;48.312;14.226;2023-11-19T13:01:02;6.40;99.90
75442;DHT22;64019;48.312;14.226;2023-11-19T13:03:47;6.40;99.90
75442;DHT22;64019;48.312;14.226;2023-11-19T13:06:14;6.50;99.90
75442;DHT22;64019;48.312;14.226;2023-11-19T13:08:41;6.50;99.90
75442;DHT22;64019;48.312;14.226;2023-11-19T13:11:08;6.50;99.90
75442;DHT22;64019;48.312;14.226;2023-11-19T13:13:57;6.40;99.90
75442;DHT22;64019;48.312;14.226;2023-11-19T13:16:23;6.40;99.90
75442;DHT22;64019;48.312;14.226;2023-11-19T13:18:49;6.50;99.90
75442;DHT22;64019;48.312;14.226;2023-11-19T13:21:15;6.70;99.90
75442;DHT22;64019;48.312;14.226;2023-11-19T13:23:40;6.70;99.90
75442;DHT22;64019;48.312;14.226;2023-11-19T13:26:06;6.70;99.90
75442;DHT22;64019;48.312;14.226;2023-11-19T13:28:32;6.70;99.90
75442;DHT22;64019;48.312;14.226;2023-11-19T13:30:58;6.70;99.90
75442;DHT22;64019;48.312;14.226;2023-11-19T13:33:24;6.80;99.90
75442;DHT22;64019;48.312;14.226;2023-11-19T13:35:49;7.00;99.90
75442;DHT22;64019;48.312;14.226;2023-11-19T13:38:15;7.00;99.90
75442;DHT22;64019;48.312;14.226;2023-11-19T13:40:41;7.00;99.90
75442;DHT22;64019;48.312;14.226;2023-11-19T13:43:06;7.00;99.90
75442;DHT22;64019;48.312;14.226;2023-11-19T13:45:32;7.10;99.90
75442;DHT22;64019;48.312;14.226;2023-11-19T13:47:58;7.20;99.90
75442;DHT22;64019;48.312;14.226;2023-11-19T13:50:24;7.20;99.90
75442;DHT22;64019;48.312;14.226;2023-11-19T13:52:50;7.10;99.90
75442;DHT22;64019;48.312;14.226;2023-11-19T13:55:15;7.10;99.90
75442;DHT22;64019;48.312;14.226;2023-11-19T13:57:42;7.00;99.90
75442;DHT22;64019;48.312;14.226;2023-11-19T14:00:10;7.00;99.90
75442;DHT22;64019;48.312;14.226;2023-11-19T14:02:40;6.90;99.90
75442;DHT22;64019;48.312;14.226;2023-11-19T14:05:07;6.90;99.90
75442;DHT22;64019;48.312;14.226;2023-11-19T14:07:32;6.80;99.90
75442;DHT22;64019;48.312;14.226;2023-11-19T14:09:58;6.80;99.90
75442;DHT22;64019;48.312;14.226;2023-11-19T14:12:24;6.80;99.90
75442;DHT22;64019;48.312;14.226;2023-11-19T14:14:49;6.80;99.90
75442;DHT22;64019;48.312;14.226;2023-11-19T14:17:15;6.70;99.90
75442;DHT22;64019;48.312;14.226;2023-11-19T14:19:42;6.70;99.90
75442;DHT22;64019;48.312;14.226;2023-11-19T14:22:08;6.70;99.90
75442;DHT22;64019;48.312;14.226;2023-11-19T14:24:34;6.70;99.90
75442;DHT22;64019;48.312;14.226;2023-11-19T14:27:00;6.80;99.90
75442;DHT22;64019;48.312;14.226;2023-11-19T14:29:27;6.80;99.90
75442;DHT22;64019;48.312;14.226;2023-11-19T14:31:53;6.90;99.90
75442;DHT22;64019;48.312;14.226;2023-11-19T14:34:20;6.90;99.90
75442;DHT22;64019;48.312;14.226;2023-11-19T14:36:46;6.90;99.90
75442;DHT22;64019;48.312;14.226;2023-11-19T14:39:11;7.00;99.90
75442;DHT22;64019;48.312;14.226;2023-11-19T14:41:37;7.00;99.90
75442;DHT22;64019;48.312;14.226;2023-11-19T14:44:03;7.00;99.90
75442;DHT22;64019;48.312;14.226;2023-11-19T14:46:29;7.00;99.90
75442;DHT22;64019;48.312;14.226;2023-11-19T14:48:54;7.00;99.90
75442;DHT22;64019;48.312;14.226;2023-11-19T14:51:20;7.00;99.90
75442;DHT22;64019;48.312;14.226;2023-11-19T14:53:46;6.90;99.90
75442;DHT22;64019;48.312;14.226;2023-11-19T14:56:12;6.90;99.90
75442;DHT22;64019;48.312;14.226;2023-11-19T14:58:38;6.80;99.90
75442;DHT22;64019;48.312;14.226;2023-11-19T15:01:04;6.90;99.90
75442;DHT22;64019;48.312;14.226;2023-11-19T15:25:00;6.60;99.90
75442;DHT22;64019;48.312;14.226;2023-11-19T15:27:26;6.50;99.90
75442;DHT22;64019;48.312;14.226;2023-11-19T15:29:52;6.50;99.90
75442;DHT22;64019;48.312;14.226;2023-11-19T15:32:18;6.40;99.90
75442;DHT22;64019;48.312;14.226;2023-11-19T15:34:44;6.40;99.90
75442;DHT22;64019;48.312;14.226;2023-11-19T16:40:11;6.30;99.90
75442;DHT22;64019;48.312;14.226;2023-11-19T16:42:38;6.20;99.90
75442;DHT22;64019;48.312;14.226;2023-11-19T16:45:07;6.10;99.90
75442;DHT22;64019;48.312;14.226;2023-11-19T16:47:33;6.10;99.90
75442;DHT22;64019;48.312;14.226;2023-11-19T16:49:58;6.20;99.90
75442;DHT22;64019;48.312;14.226;2023-11-19T16:52:24;6.20;99.90
75442;DHT22;64019;48.312;14.226;2023-11-19T16:54:51;6.20;99.90
75442;DHT22;64019;48.312;14.226;2023-11-19T16:57:16;6.20;99.90
75442;DHT22;64019;48.312;14.226;2023-11-19T16:59:43;6.20;99.90
75442;DHT22;64019;48.312;14.226;2023-11-19T17:02:08;6.10;99.90
75442;DHT22;64019;48.312;14.226;2023-11-19T17:04:37;6.10;99.90
75442;DHT22;64019;48.312;14.226;2023-11-19T17:07:02;6.20;99.90
75442;DHT22;64019;48.312;14.226;2023-11-19T17:09:28;6.20;99.90